Time;durP1;ratioP1;P1;durP2;ratioP2;P2;SDS_P1;SDS_P2;PMS_P1;PMS_P2;Temp;Humidity;BMP_temperature;BMP_pressure;BME280_temperature;BME280_humidity;BME280_pressure;Samples;Min_cycle;Max_cycle;Signal;HPM_P1;HPM_P2
2021/06/28 00:00:21;;;;;;;6.68;4.00;;;18.90;99.90;;;;;;5097401;28;20028;-54
2021/06/28 00:02:46;;;;;;;9.43;4.93;;;18.70;99.90;;;;;;5090058;28;20044;-55
2021/06/28 00:05:14;;;;;;;5.88;4.03;;;18.60;99.90;;;;;;5094183;28;20538;-57
2021/06/28 00:07:42;;;;;;;6.97;3.83;;;18.50;99.90;;;;;;5094533;28;20032;-52
2021/06/28 00:10:11;;;;;;;5.55;3.72;;;18.40;99.90;;;;;;5054215;28;20041;-56
2021/06/28 00:12:38;;;;;;;6.25;4.03;;;18.40;99.90;;;;;;5093899;28;20042;-55
2021/06/28 00:15:08;;;;;;;4.70;3.28;;;18.40;99.90;;;;;;5092323;28;20036;-55
2021/06/28 00:17:34;;;;;;;5.18;3.80;;;18.50;99.90;;;;;;5090710;28;20455;-54
2021/06/28 00:20:00;;;;;;;4.43;3.75;;;18.50;99.90;;;;;;5090060;28;20074;-54
2021/06/28 00:22:26;;;;;;;5.47;3.95;;;18.50;99.90;;;;;;5040023;28;20396;-56
2021/06/28 00:24:52;;;;;;;10.90;4.57;;;18.60;99.90;;;;;;5070132;28;20071;-54
2021/06/28 00:27:22;;;;;;;6.65;4.88;;;18.60;99.90;;;;;;5100732;28;20083;-56
2021/06/28 00:29:48;;;;;;;5.80;3.72;;;18.60;99.90;;;;;;5096960;28;20024;-57
2021/06/28 00:32:14;;;;;;;8.77;4.20;;;18.50;99.90;;;;;;5096251;28;20133;-52
2021/06/28 00:34:40;;;;;;;5.25;3.70;;;18.50;99.90;;;;;;5095321;28;20091;-58
2021/06/28 00:37:06;;;;;;;5.57;3.83;;;18.40;99.90;;;;;;5095909;28;20813;-54
2021/06/28 00:39:31;;;;;;;4.50;3.95;;;18.40;99.90;;;;;;5068521;28;20047;-56
2021/06/28 00:41:57;;;;;;;4.03;3.58;;;18.40;99.90;;;;;;5088503;28;20031;-55
2021/06/28 00:44:23;;;;;;;4.93;4.07;;;18.40;99.90;;;;;;5103876;28;20070;-53
2021/06/28 00:46:49;;;;;;;5.47;4.18;;;18.40;99.90;;;;;;5090391;28;20028;-55
2021/06/28 00:49:14;;;;;;;9.15;4.57;;;18.40;99.90;;;;;;5085723;28;20044;-56
2021/06/28 00:51:40;;;;;;;5.10;3.83;;;18.40;99.90;;;;;;5092705;28;20030;-53
2021/06/28 00:54:07;;;;;;;7.40;4.10;;;18.40;99.90;;;;;;5080596;28;20032;-56
2021/06/28 00:56:33;;;;;;;5.38;3.80;;;18.40;99.90;;;;;;5101442;28;20106;-55
2021/06/28 00:59:01;;;;;;;7.75;4.07;;;18.30;99.90;;;;;;5070576;28;20163;-55
2021/06/28 01:01:27;;;;;;;4.95;4.05;;;18.40;99.90;;;;;;5094404;28;20047;-54
2021/06/28 01:03:53;;;;;;;6.38;4.15;;;18.40;99.90;;;;;;5099223;28;20536;-55
2021/06/28 01:06:19;;;;;;;7.22;3.92;;;18.30;99.90;;;;;;5062525;28;20037;-57
2021/06/28 01:08:45;;;;;;;4.25;3.83;;;18.30;99.90;;;;;;5082130;28;20036;-56
2021/06/28 01:11:11;;;;;;;5.43;4.43;;;18.30;99.90;;;;;;5096051;28;20043;-58
2021/06/28 01:13:40;;;;;;;5.85;4.65;;;18.30;99.90;;;;;;5080671;28;20036;-54
2021/06/28 01:16:06;;;;;;;5.30;4.28;;;18.30;99.90;;;;;;5098483;28;20024;-57
2021/06/28 01:18:33;;;;;;;9.07;4.30;;;18.20;99.90;;;;;;5099870;28;20542;-57
2021/06/28 01:21:02;;;;;;;8.85;4.85;;;18.00;99.90;;;;;;5099441;28;20020;-55
2021/06/28 01:23:34;;;;;;;7.10;5.38;;;17.80;99.90;;;;;;5098766;28;20049;-53
2021/06/28 01:26:05;;;;;;;8.30;4.78;;;17.70;99.90;;;;;;5082495;28;20044;-57
2021/06/28 01:28:31;;;;;;;7.78;5.00;;;17.70;99.90;;;;;;5102037;28;20119;-56
2021/06/28 01:30:59;;;;;;;5.78;4.47;;;17.70;99.90;;;;;;5101656;28;20545;-57
2021/06/28 01:33:25;;;;;;;6.35;4.30;;;17.70;99.90;;;;;;5092346;28;20036;-53
2021/06/28 01:35:51;;;;;;;5.95;4.18;;;17.70;99.90;;;;;;5097553;28;20050;-59
2021/06/28 01:38:17;;;;;;;5.32;4.10;;;17.80;99.90;;;;;;5097355;28;20067;-57
2021/06/28 01:40:43;;;;;;;5.53;3.97;;;17.70;99.90;;;;;;5097956;28;20123;-55
2021/06/28 01:43:09;;;;;;;6.03;4.03;;;17.80;99.90;;;;;;5091878;28;20127;-57
2021/06/28 01:45:36;;;;;;;7.00;4.70;;;17.90;99.90;;;;;;5092224;28;20059;-59
2021/06/28 01:48:02;;;;;;;5.63;4.60;;;17.70;99.90;;;;;;5094341;28;20053;-55
2021/06/28 01:50:31;;;;;;;5.82;4.60;;;17.50;99.90;;;;;;5104286;28;20054;-57
2021/06/28 01:52:58;;;;;;;6.75;4.63;;;17.30;99.90;;;;;;5097331;28;20048;-58
2021/06/28 01:55:25;;;;;;;6.70;4.60;;;17.30;99.90;;;;;;5103805;28;20110;-56
2021/06/28 01:57:53;;;;;;;6.18;4.55;;;17.20;99.90;;;;;;5083879;28;20444;-56
2021/06/28 02:00:32;;;;;;;6.90;4.65;;;17.20;99.90;;;;;;5092460;28;20368;-59
2021/06/28 02:03:00;;;;;;;7.07;4.60;;;17.20;99.90;;;;;;5055546;28;20045;-55
2021/06/28 02:05:27;;;;;;;6.43;4.78;;;17.30;99.90;;;;;;5048455;28;20056;-57
2021/06/28 02:07:53;;;;;;;7.07;5.20;;;17.30;99.90;;;;;;5059407;28;20028;-54
2021/06/28 02:10:20;;;;;;;8.00;4.88;;;17.20;99.90;;;;;;5046630;28;20040;-55
2021/06/28 02:12:45;;;;;;;6.82;4.88;;;17.10;99.90;;;;;;5061999;28;20058;-59
2021/06/28 02:15:26;;;;;;;5.25;4.32;;;17.00;99.90;;;;;;5056584;28;20116;-55
2021/06/28 02:17:53;;;;;;;11.35;4.88;;;17.10;99.90;;;;;;5050082;28;20488;-57
2021/06/28 02:20:20;;;;;;;6.63;4.50;;;17.10;99.90;;;;;;5029845;28;20037;-55
2021/06/28 02:22:48;;;;;;;4.90;4.40;;;17.00;99.90;;;;;;5050738;28;20090;-59
2021/06/28 02:25:14;;;;;;;5.57;4.75;;;17.00;99.90;;;;;;5050744;28;20707;-56
2021/06/28 02:27:41;;;;;;;5.85;4.88;;;16.90;99.90;;;;;;5067879;28;20063;-56
2021/06/28 02:30:11;;;;;;;5.32;4.80;;;16.90;99.90;;;;;;5041688;28;20040;-53
2021/06/28 02:32:37;;;;;;;6.88;4.95;;;16.90;99.90;;;;;;5043192;28;20044;-57
2021/06/28 02:35:05;;;;;;;9.30;5.22;;;16.80;99.90;;;;;;5100727;28;20043;-57
2021/06/28 02:37:32;;;;;;;6.05;5.20;;;16.80;99.90;;;;;;5091001;28;20045;-57
2021/06/28 02:39:58;;;;;;;8.40;4.32;;;16.90;99.90;;;;;;5105302;28;20048;-55
2021/06/28 02:42:24;;;;;;;6.28;4.18;;;17.00;99.90;;;;;;5094760;28;20027;-55
2021/06/28 02:44:50;;;;;;;5.90;3.78;;;17.00;99.90;;;;;;5103556;28;20032;-57
2021/06/28 02:47:16;;;;;;;5.32;4.80;;;17.10;99.90;;;;;;5101082;28;20058;-53
2021/06/28 02:49:41;;;;;;;6.78;4.20;;;17.00;99.90;;;;;;5096112;28;20027;-54
2021/06/28 02:52:07;;;;;;;6.45;4.60;;;16.80;99.90;;;;;;5094373;28;20077;-56
2021/06/28 02:54:33;;;;;;;7.07;4.75;;;16.70;99.90;;;;;;5107372;28;20463;-54
2021/06/28 02:56:59;;;;;;;6.30;4.68;;;16.60;99.90;;;;;;5096599;28;20092;-57
2021/06/28 02:59:24;;;;;;;5.72;4.95;;;16.50;99.90;;;;;;5094263;28;20015;-56
2021/06/28 03:01:50;;;;;;;7.53;4.50;;;16.40;99.90;;;;;;5096104;28;20719;-58
2021/06/28 03:04:16;;;;;;;6.97;5.13;;;16.30;99.90;;;;;;5102314;28;20499;-57
2021/06/28 03:06:42;;;;;;;7.53;4.70;;;16.30;99.90;;;;;;5096466;28;20038;-55
2021/06/28 03:09:07;;;;;;;7.97;4.63;;;16.30;99.90;;;;;;5076521;28;20406;-58
2021/06/28 03:11:33;;;;;;;10.40;5.05;;;16.40;99.90;;;;;;5096404;28;20068;-56
2021/06/28 03:13:59;;;;;;;7.63;4.00;;;16.40;99.90;;;;;;5054577;28;20027;-57
2021/06/28 03:16:25;;;;;;;6.72;4.35;;;16.60;99.90;;;;;;5098424;28;20079;-57
2021/06/28 03:18:52;;;;;;;8.85;4.70;;;16.60;99.90;;;;;;5097052;28;20032;-58
2021/06/28 03:21:18;;;;;;;7.35;4.20;;;16.70;99.90;;;;;;5098450;28;20099;-54
2021/06/28 03:23:44;;;;;;;6.40;4.30;;;16.80;99.90;;;;;;5075384;28;20127;-55
2021/06/28 03:26:11;;;;;;;5.28;4.20;;;16.90;99.90;;;;;;5096887;28;20036;-57
2021/06/28 03:28:37;;;;;;;8.07;4.82;;;17.00;99.90;;;;;;5093863;28;20020;-57
2021/06/28 03:31:05;;;;;;;6.95;4.65;;;17.20;99.90;;;;;;5088165;28;20397;-54
2021/06/28 03:33:31;;;;;;;5.00;4.38;;;17.30;99.90;;;;;;5085521;28;20102;-57
2021/06/28 03:35:57;;;;;;;7.78;4.80;;;17.40;99.90;;;;;;5039726;28;20076;-54
2021/06/28 03:38:23;;;;;;;6.00;4.22;;;17.50;99.90;;;;;;5075098;28;20421;-56
2021/06/28 03:40:49;;;;;;;12.48;4.70;;;17.50;99.90;;;;;;5077822;28;20495;-55
2021/06/28 03:43:15;;;;;;;10.38;5.35;;;17.50;99.90;;;;;;5075071;28;20037;-54
2021/06/28 03:45:41;;;;;;;8.20;4.18;;;17.60;99.90;;;;;;5077673;28;20033;-58
2021/06/28 03:48:09;;;;;;;7.40;4.35;;;17.70;99.90;;;;;;5075736;28;20102;-54
2021/06/28 03:50:35;;;;;;;6.95;4.22;;;17.80;99.90;;;;;;5078504;28;20067;-53
2021/06/28 03:53:01;;;;;;;6.78;4.28;;;17.80;99.90;;;;;;5070279;28;20422;-56
2021/06/28 03:55:27;;;;;;;7.32;4.70;;;17.90;99.90;;;;;;5076907;28;20036;-55
2021/06/28 03:57:53;;;;;;;4.55;4.00;;;18.00;99.90;;;;;;5078546;28;20031;-56
2021/06/28 04:00:25;;;;;;;4.43;3.83;;;18.00;99.90;;;;;;5044993;28;20044;-55
2021/06/28 04:02:52;;;;;;;5.07;3.78;;;18.10;99.90;;;;;;5041250;28;20426;-55
2021/06/28 04:05:21;;;;;;;6.90;4.47;;;18.20;99.90;;;;;;5092067;28;20055;-54
2021/06/28 04:07:47;;;;;;;6.05;4.65;;;18.30;99.90;;;;;;5105442;28;20065;-57
2021/06/28 04:10:15;;;;;;;6.18;4.18;;;18.30;99.90;;;;;;5089812;28;20040;-57
2021/06/28 04:12:41;;;;;;;8.60;5.00;;;18.40;99.90;;;;;;5090756;28;20037;-55
2021/06/28 04:15:10;;;;;;;9.07;4.25;;;18.40;99.90;;;;;;5095892;28;20220;-54
2021/06/28 04:17:40;;;;;;;6.30;4.40;;;18.50;99.90;;;;;;5097828;28;20039;-56
2021/06/28 04:20:08;;;;;;;8.27;4.78;;;18.70;99.90;;;;;;5088334;28;20048;-58
2021/06/28 04:22:35;;;;;;;10.23;5.30;;;18.80;99.90;;;;;;5078285;28;20039;-55
2021/06/28 04:25:02;;;;;;;6.03;4.38;;;18.90;99.90;;;;;;5091878;28;20048;-58
2021/06/28 04:27:28;;;;;;;7.38;4.80;;;19.00;99.90;;;;;;5090161;28;20116;-59
2021/06/28 04:29:54;;;;;;;6.97;4.10;;;19.10;99.90;;;;;;5096140;28;20074;-56
2021/06/28 04:32:20;;;;;;;7.00;5.00;;;19.20;99.90;;;;;;5097891;28;20119;-56
2021/06/28 04:34:46;;;;;;;7.60;5.05;;;19.40;99.90;;;;;;5041192;28;20560;-55
2021/06/28 04:37:13;;;;;;;6.43;5.00;;;19.50;99.90;;;;;;5089675;28;20025;-55
2021/06/28 04:39:40;;;;;;;7.93;5.45;;;19.50;99.90;;;;;;5092334;28;20110;-56
2021/06/28 04:42:07;;;;;;;12.32;6.20;;;19.50;99.90;;;;;;5091629;28;20028;-54
2021/06/28 04:44:33;;;;;;;12.35;6.10;;;19.50;99.90;;;;;;5088462;28;20120;-52
2021/06/28 04:46:59;;;;;;;6.10;5.43;;;19.60;99.90;;;;;;5032486;28;20182;-52
2021/06/28 04:49:25;;;;;;;8.13;6.25;;;19.50;99.90;;;;;;5077911;28;20037;-56
2021/06/28 04:51:51;;;;;;;7.93;5.65;;;19.60;99.90;;;;;;5080594;28;20017;-57
2021/06/28 04:54:17;;;;;;;6.85;5.40;;;19.70;99.90;;;;;;5080911;28;20052;-58
2021/06/28 04:56:43;;;;;;;9.13;5.68;;;19.80;99.90;;;;;;5097360;28;20100;-58
2021/06/28 04:59:08;;;;;;;14.20;6.43;;;19.90;99.90;;;;;;5092136;28;20353;-55
2021/06/28 05:01:34;;;;;;;8.63;6.18;;;20.10;99.90;;;;;;5072257;28;20052;-57
2021/06/28 05:04:00;;;;;;;8.40;5.97;;;20.20;99.90;;;;;;5097024;28;20379;-56
2021/06/28 05:06:25;;;;;;;8.25;4.53;;;20.40;99.90;;;;;;5094086;28;20016;-56
2021/06/28 05:08:51;;;;;;;9.40;5.93;;;20.70;99.90;;;;;;5099816;28;20066;-64
2021/06/28 05:11:19;;;;;;;13.35;5.57;;;20.90;99.90;;;;;;5094670;28;20024;-57
2021/06/28 05:13:44;;;;;;;6.68;4.70;;;21.20;99.90;;;;;;5099906;28;20037;-59
2021/06/28 05:16:10;;;;;;;7.47;4.90;;;21.50;99.90;;;;;;5100399;28;20013;-58
2021/06/28 05:18:36;;;;;;;5.82;4.68;;;21.60;99.90;;;;;;5098211;28;20386;-57
2021/06/28 05:21:02;;;;;;;6.10;5.07;;;21.90;99.90;;;;;;5087743;28;20028;-56
2021/06/28 05:23:28;;;;;;;4.78;4.00;;;22.10;99.90;;;;;;5087785;28;20034;-57
2021/06/28 05:25:55;;;;;;;5.25;4.60;;;22.30;99.90;;;;;;5046748;28;20044;-55
2021/06/28 05:28:22;;;;;;;4.95;3.72;;;;;;;;;;5091122;28;20048;-58
2021/06/28 05:30:49;;;;;;;5.95;4.63;;;;;;;;;;5099347;28;20031;-56
2021/06/28 05:33:15;;;;;;;8.60;5.18;;;;;;;;;;5098590;28;20024;-60
2021/06/28 05:35:41;;;;;;;9.98;4.25;;;;;;;;;;5096011;28;20048;-59
2021/06/28 05:38:07;;;;;;;6.10;4.30;;;;;;;;;;5086676;28;20038;-60
2021/06/28 05:40:33;;;;;;;8.05;4.43;;;;;;;;;;5095525;28;20024;-58
2021/06/28 05:43:00;;;;;;;6.57;4.15;;;;;;;;;;5099293;28;20028;-59
2021/06/28 05:45:26;;;;;;;8.60;4.88;;;;;;;;;;5106177;28;20036;-59
2021/06/28 05:47:52;;;;;;;5.85;5.13;;;;;;;;;;5099767;28;20466;-58
2021/06/28 05:50:19;;;;;;;6.15;4.30;;;;;;;;;;5097522;28;20391;-57
2021/06/28 05:52:46;;;;;;;7.47;4.20;;;;;;;;;;5095182;28;20060;-61
2021/06/28 05:55:13;;;;;;;6.93;4.18;;;;;;;;;;5096469;28;20032;-58
2021/06/28 05:57:39;;;;;;;7.28;4.10;;;;;;;;;;5097054;28;20117;-56
2021/06/28 06:00:07;;;;;;;7.05;4.10;;;;;;;;;;5097016;28;20028;-55
2021/06/28 06:02:33;;;;;;;5.97;4.40;;;;;;;;;;5081139;28;20100;-55
2021/06/28 06:05:00;;;;;;;7.18;4.32;;;;;;;;;;5101464;28;20039;-56
2021/06/28 06:07:26;;;;;;;8.27;4.75;;;;;;;;;;5093549;28;20031;-54
2021/06/28 06:09:52;;;;;;;6.07;3.75;;;;;;;;;;5093389;28;20027;-56
2021/06/28 06:12:18;;;;;;;6.38;4.18;;;;;;;;;;5092217;28;20017;-57
2021/06/28 06:14:45;;;;;;;5.45;3.63;;;;;;;;;;5077887;28;20052;-61
2021/06/28 06:17:11;;;;;;;3.65;3.15;;;;;;;;;;5099033;28;20115;-54
2021/06/28 06:19:37;;;;;;;4.20;3.55;;;;;;;;;;5110603;28;20027;-57
2021/06/28 06:22:04;;;;;;;5.28;3.10;;;;;;;;;;5098815;28;20036;-54
2021/06/28 06:24:30;;;;;;;4.57;3.38;;;;;;;;;;5085622;28;20143;-56
2021/06/28 06:26:57;;;;;;;4.07;2.90;;;;;;;;;;5097081;28;20487;-56
2021/06/28 06:29:24;;;;;;;4.72;2.92;;;;;;;;;;5105847;28;20039;-56
2021/06/28 06:31:50;;;;;;;3.50;3.10;;;;;;;;;;5103895;28;20443;-56
2021/06/28 06:34:16;;;;;;;4.38;3.10;;;;;;;;;;5102682;28;20032;-61
2021/06/28 06:36:42;;;;;;;3.67;2.83;;;;;;;;;;5096573;28;20031;-60
2021/06/28 06:39:08;;;;;;;3.72;2.75;;;;;;;;;;5077267;28;20449;-55
2021/06/28 06:41:35;;;;;;;5.32;3.25;;;;;;;;;;5104465;28;20470;-56
2021/06/28 06:44:00;;;;;;;3.70;3.00;;;26.60;92.20;;;;;;5065244;28;20036;-56
2021/06/28 06:46:46;;;;;;;6.00;2.85;;;26.60;92.30;;;;;;5104382;28;20093;-54
2021/06/28 06:49:12;;;;;;;6.20;2.72;;;26.70;90.70;;;;;;5106494;28;20023;-57
2021/06/28 06:51:38;;;;;;;4.30;2.58;;;26.80;91.20;;;;;;5085780;28;20109;-56
2021/06/28 06:54:04;;;;;;;6.07;3.08;;;27.00;90.70;;;;;;5093518;28;20609;-59
2021/06/28 06:56:30;;;;;;;4.70;2.47;;;;;;;;;;5049586;28;20138;-58
2021/06/28 06:58:56;;;;;;;4.07;2.40;;;27.50;87.10;;;;;;5070959;28;20041;-60
2021/06/28 07:01:22;;;;;;;4.05;2.53;;;27.60;86.80;;;;;;5102215;28;20081;-58
2021/06/28 07:03:48;;;;;;;4.03;2.17;;;27.60;85.90;;;;;;5098880;28;20028;-57
2021/06/28 07:06:14;;;;;;;3.00;2.47;;;27.60;85.70;;;;;;5097854;28;20386;-59
2021/06/28 07:08:40;;;;;;;5.05;2.85;;;;;;;;;;5097237;28;20115;-60
2021/06/28 07:11:11;;;;;;;4.68;3.10;;;28.00;87.60;;;;;;5089463;28;20024;-56
2021/06/28 07:13:43;;;;;;;3.00;2.70;;;28.10;86.20;;;;;;5089179;28;20443;-58
2021/06/28 07:16:09;;;;;;;9.48;2.80;;;28.30;95.70;;;;;;5095635;28;20054;-58
2021/06/28 07:18:36;;;;;;;3.47;3.00;;;;;;;;;;5094114;28;20032;-55
2021/06/28 07:21:03;;;;;;;5.60;2.60;;;28.40;99.90;;;;;;5095339;28;20020;-58
2021/06/28 07:23:30;;;;;;;4.63;2.75;;;28.50;84.90;;;;;;5101483;28;20366;-58
2021/06/28 07:25:57;;;;;;;3.80;2.47;;;28.70;82.20;;;;;;5098354;28;20043;-56
2021/06/28 07:28:23;;;;;;;3.90;3.00;;;28.80;81.30;;;;;;5097672;28;20070;-58
2021/06/28 07:30:49;;;;;;;4.32;2.97;;;28.60;82.50;;;;;;5100706;28;20028;-55
2021/06/28 07:33:15;;;;;;;3.92;2.90;;;28.90;82.30;;;;;;5097329;28;20489;-59
2021/06/28 07:35:42;;;;;;;4.57;2.78;;;29.00;82.00;;;;;;5086844;28;20052;-60
2021/06/28 07:38:07;;;;;;;4.93;2.63;;;29.20;81.90;;;;;;5105029;28;20031;-59
2021/06/28 07:40:33;;;;;;;3.45;2.65;;;29.30;79.80;;;;;;5095660;28;20027;-54
2021/06/28 07:42:59;;;;;;;4.68;2.65;;;29.50;81.00;;;;;;5100171;28;20527;-59
2021/06/28 07:45:25;;;;;;;3.90;3.00;;;;;;;;;;5101866;28;20032;-55
2021/06/28 07:47:52;;;;;;;5.32;2.42;;;29.50;80.20;;;;;;5098153;28;20037;-58
2021/06/28 07:50:19;;;;;;;4.25;2.70;;;29.70;78.80;;;;;;5095310;28;20440;-58
2021/06/28 07:52:45;;;;;;;3.92;2.78;;;29.80;78.30;;;;;;5092673;28;20666;-60
2021/06/28 07:55:12;;;;;;;3.25;2.10;;;30.00;77.20;;;;;;5094153;28;20106;-57
2021/06/28 07:57:39;;;;;;;2.80;2.40;;;30.10;77.60;;;;;;5103174;28;20089;-57
2021/06/28 08:00:10;;;;;;;3.30;2.53;;;30.10;77.10;;;;;;5097763;28;20024;-57
2021/06/28 08:02:36;;;;;;;6.85;2.78;;;30.10;77.80;;;;;;5051921;28;20463;-59
2021/06/28 08:05:04;;;;;;;4.35;2.60;;;30.40;77.20;;;;;;5049224;28;20091;-58
2021/06/28 08:07:30;;;;;;;4.15;2.28;;;30.50;77.00;;;;;;5057127;28;20056;-57
2021/06/28 08:09:55;;;;;;;2.67;2.28;;;30.50;74.20;;;;;;5056757;28;20561;-59
2021/06/28 08:12:21;;;;;;;4.43;2.63;;;30.80;75.40;;;;;;5051641;28;20034;-57
2021/06/28 08:14:47;;;;;;;5.20;2.53;;;31.00;70.80;;;;;;5044981;28;20029;-56
2021/06/28 08:17:13;;;;;;;2.65;2.13;;;31.00;71.50;;;;;;5008794;28;20033;-56
2021/06/28 08:19:42;;;;;;;4.30;2.15;;;31.10;70.80;;;;;;5052740;28;20215;-59
2021/06/28 08:22:09;;;;;;;2.10;1.90;;;31.10;68.80;;;;;;5012510;28;20049;-56
2021/06/28 08:24:35;;;;;;;6.35;2.90;;;31.00;67.90;;;;;;5049580;28;20037;-57
2021/06/28 08:27:01;;;;;;;5.35;2.40;;;30.90;68.40;;;;;;5048008;28;20021;-56
2021/06/28 08:29:27;;;;;;;2.65;2.15;;;31.10;69.50;;;;;;5018749;28;20515;-56
2021/06/28 08:31:52;;;;;;;3.40;2.53;;;31.30;69.20;;;;;;5011286;28;20040;-57
2021/06/28 08:34:18;;;;;;;3.22;2.00;;;31.50;66.50;;;;;;5058282;28;20047;-60
2021/06/28 08:36:45;;;;;;;2.63;2.00;;;31.60;68.40;;;;;;5068230;28;20047;-57
2021/06/28 08:39:13;;;;;;;3.50;2.20;;;31.80;66.80;;;;;;5095869;28;20035;-57
2021/06/28 08:41:42;;;;;;;4.38;2.17;;;31.90;64.90;;;;;;5089653;28;20036;-58
2021/06/28 08:44:09;;;;;;;3.13;2.22;;;31.90;66.10;;;;;;5091105;28;20061;-57
2021/06/28 08:46:36;;;;;;;5.97;2.53;;;32.00;64.70;;;;;;5090869;28;20111;-56
2021/06/28 08:49:03;;;;;;;3.83;2.25;;;32.70;63.80;;;;;;5092649;28;20020;-58
2021/06/28 08:51:30;;;;;;;4.05;2.40;;;34.30;63.50;;;;;;5092514;28;20063;-58
2021/06/28 08:53:57;;;;;;;3.05;2.20;;;35.70;61.00;;;;;;5093267;28;20020;-57
2021/06/28 08:56:23;;;;;;;3.00;2.50;;;37.10;58.70;;;;;;5093755;28;20501;-58
2021/06/28 08:58:49;;;;;;;3.85;2.28;;;38.30;56.50;;;;;;5091957;28;20054;-60
2021/06/28 09:01:15;;;;;;;4.10;2.33;;;39.00;55.30;;;;;;5096141;28;20031;-60
2021/06/28 09:03:41;;;;;;;2.53;2.10;;;39.70;52.80;;;;;;5090674;28;20028;-59
2021/06/28 09:06:07;;;;;;;2.90;2.15;;;40.40;51.40;;;;;;5088157;28;20052;-55
2021/06/28 09:08:37;;;;;;;4.57;2.30;;;40.70;50.40;;;;;;5091472;28;20491;-55
2021/06/28 09:11:04;;;;;;;5.18;2.30;;;41.60;50.20;;;;;;5093097;28;20032;-57
2021/06/28 09:13:47;;;;;;;3.58;2.10;;;42.10;48.70;;;;;;5073670;28;20047;-59
2021/06/28 09:16:20;;;;;;;4.20;2.35;;;41.50;47.50;;;;;;5093847;28;20031;-58
2021/06/28 09:18:51;;;;;;;4.45;2.08;;;41.90;47.90;;;;;;5080967;28;20084;-59
2021/06/28 09:21:27;;;;;;;2.50;2.17;;;42.60;48.30;;;;;;5088593;28;20032;-59
2021/06/28 09:23:54;;;;;;;2.60;2.20;;;43.20;47.60;;;;;;5087728;28;20058;-59
2021/06/28 09:26:20;;;;;;;4.80;2.53;;;43.70;45.20;;;;;;5089420;28;20031;-60
2021/06/28 09:32:13;;;;;;;3.20;2.08;;;45.50;44.30;;;;;;5092374;28;20058;-55
2021/06/28 09:38:09;;;;;;;4.30;2.17;;;44.40;45.30;;;;;;5094671;28;19953;-58
2021/06/28 09:44:05;;;;;;;2.65;2.20;;;47.10;42.70;;;;;;5092762;28;20081;-57
2021/06/28 09:50:04;;;;;;;3.33;2.53;;;45.90;43.60;;;;;;5075777;28;20102;-58
2021/06/28 09:55:52;;;;;;;3.45;2.20;;;46.50;43.70;;;;;;5075166;28;20082;-57
2021/06/28 09:58:49;;;;;;;6.53;3.80;;;48.00;42.20;;;;;;5068922;28;20056;-57
2021/06/28 10:01:23;;;;;;;4.07;2.90;;;48.10;41.30;;;;;;5053754;28;20037;-59
2021/06/28 10:03:52;;;;;;;4.15;2.70;;;48.60;40.70;;;;;;5049361;28;20021;-57
2021/06/28 10:08:48;;;;;;;5.18;2.47;;;49.30;40.20;;;;;;5052097;28;20048;-58
2021/06/28 10:11:21;;;;;;;3.50;2.65;;;49.60;39.60;;;;;;5059285;28;20033;-58
2021/06/28 10:14:05;;;;;;;4.95;2.55;;;49.70;40.80;;;;;;5054806;28;20037;-57
2021/06/28 10:16:39;;;;;;;3.47;2.70;;;49.60;39.90;;;;;;5049937;28;20021;-56
2021/06/28 10:19:09;;;;;;;4.15;2.70;;;50.30;39.00;;;;;;5075892;28;20056;-57
2021/06/28 10:21:37;;;;;;;3.65;2.60;;;50.90;38.80;;;;;;5069558;28;20044;-57
2021/06/28 10:24:06;;;;;;;4.53;2.63;;;51.50;39.20;;;;;;5073662;28;20028;-57
2021/06/28 10:26:32;;;;;;;4.18;2.60;;;50.80;39.10;;;;;;5085682;28;20090;-56
2021/06/28 10:28:57;;;;;;;4.97;2.80;;;50.30;38.70;;;;;;5083234;28;20028;-58
2021/06/28 10:31:23;;;;;;;2.83;2.20;;;49.70;40.10;;;;;;5079049;28;20124;-56
2021/06/28 10:33:55;;;;;;;3.42;2.70;;;50.40;38.80;;;;;;5083188;28;20032;-56
2021/06/28 10:36:24;;;;;;;4.88;2.92;;;50.70;38.90;;;;;;5078169;28;20032;-57
2021/06/28 10:38:55;;;;;;;6.10;2.60;;;51.20;38.70;;;;;;5077960;28;20511;-58
2021/06/28 10:41:52;;;;;;;4.25;2.95;;;51.80;37.90;;;;;;5081916;28;20020;-56
2021/06/28 10:44:20;;;;;;;4.35;2.85;;;52.00;37.70;;;;;;5078262;28;20102;-57
2021/06/28 10:46:50;;;;;;;3.45;2.72;;;52.10;38.00;;;;;;5081602;28;20487;-55
2021/06/28 10:49:36;;;;;;;4.00;2.85;;;52.00;36.60;;;;;;5084299;28;20061;-57
2021/06/28 10:52:01;;;;;;;3.03;2.72;;;53.60;36.80;;;;;;5083324;28;20025;-57
2021/06/28 10:54:35;;;;;;;3.67;2.90;;;54.10;36.50;;;;;;5075466;28;20058;-56
2021/06/28 10:57:02;;;;;;;4.03;2.83;;;53.80;35.90;;;;;;5081782;28;20506;-58
2021/06/28 10:59:30;;;;;;;4.75;2.90;;;54.40;36.30;;;;;;5060489;28;20032;-57
2021/06/28 11:02:02;;;;;;;4.03;3.00;;;51.70;36.00;;;;;;5082738;28;20036;-58
2021/06/28 11:04:30;;;;;;;3.70;3.00;;;52.80;36.00;;;;;;5080626;28;20044;-58
2021/06/28 11:06:59;;;;;;;5.90;3.17;;;54.20;36.10;;;;;;5083109;28;20036;-57
2021/06/28 11:09:46;;;;;;;5.28;3.78;;;54.60;35.70;;;;;;5074685;28;20032;-57
2021/06/28 11:12:21;;;;;;;5.07;2.95;;;54.70;35.30;;;;;;5087380;28;20471;-55
2021/06/28 11:14:48;;;;;;;4.90;3.45;;;54.70;35.10;;;;;;5079404;28;20025;-57
2021/06/28 11:17:17;;;;;;;3.35;2.63;;;55.70;36.30;;;;;;5077182;28;20028;-56
2021/06/28 11:19:52;;;;;;;4.32;3.05;;;54.60;34.60;;;;;;5074014;28;20029;-57
2021/06/28 11:22:34;;;;;;;4.85;2.45;;;51.40;36.80;;;;;;5070893;28;20128;-58
2021/06/28 11:25:06;;;;;;;4.82;3.10;;;53.80;35.10;;;;;;5069624;28;20040;-56
2021/06/28 11:27:32;;;;;;;5.15;2.90;;;53.30;36.00;;;;;;5071031;28;20028;-58
2021/06/28 11:29:58;;;;;;;4.80;2.80;;;53.00;36.70;;;;;;5066123;28;20024;-56
2021/06/28 11:32:29;;;;;;;3.78;2.75;;;53.60;34.70;;;;;;5069300;28;20051;-57
2021/06/28 11:34:56;;;;;;;4.63;2.60;;;54.70;34.90;;;;;;5031685;28;20457;-56
2021/06/28 11:37:22;;;;;;;4.22;2.70;;;53.60;33.90;;;;;;5037476;28;20120;-57
2021/06/28 11:39:56;;;;;;;3.20;2.58;;;53.40;34.60;;;;;;5036467;28;20045;-56
2021/06/28 11:42:33;;;;;;;4.40;2.60;;;53.60;34.80;;;;;;5040040;28;20116;-57
2021/06/28 11:45:08;;;;;;;3.83;2.78;;;55.30;34.90;;;;;;5041368;28;20532;-56
2021/06/28 11:47:56;;;;;;;4.75;3.13;;;54.70;34.10;;;;;;5017649;28;20041;-57
2021/06/28 11:50:37;;;;;;;3.90;2.75;;;55.00;36.30;;;;;;4972876;28;20390;-57
2021/06/28 11:53:07;;;;;;;;;;;56.00;35.30;;;;;;4918744;28;20409;-58
2021/06/28 11:55:35;;;;;;;3.70;2.45;;;56.40;34.20;;;;;;4973176;28;19910;-58
2021/06/28 11:58:01;;;;;;;2.72;2.38;;;56.80;34.20;;;;;;4972282;28;20035;-57
2021/06/28 12:00:29;;;;;;;6.00;2.50;;;56.50;33.20;;;;;;4947220;28;20057;-57
2021/06/28 12:03:17;;;;;;;5.72;2.60;;;56.60;33.50;;;;;;4971732;28;20129;-57
2021/06/28 12:05:45;;;;;;;4.35;2.40;;;58.40;33.50;;;;;;4988650;28;20065;-55
2021/06/28 12:08:13;;;;;;;2.83;2.45;;;57.40;32.90;;;;;;5013985;28;20057;-57
2021/06/28 12:10:40;;;;;;;3.90;2.90;;;57.30;33.10;;;;;;5013801;28;20025;-57
2021/06/28 12:13:06;;;;;;;5.38;2.63;;;59.00;33.40;;;;;;5013339;28;20523;-57
2021/06/28 12:15:32;;;;;;;4.03;2.70;;;59.00;32.90;;;;;;5017023;28;20043;-56
2021/06/28 12:18:04;;;;;;;3.67;2.67;;;59.10;32.40;;;;;;5010843;28;20076;-56
2021/06/28 12:20:35;;;;;;;3.85;2.50;;;57.70;32.80;;;;;;5011939;28;20100;-57
2021/06/28 12:23:08;;;;;;;3.10;2.67;;;57.30;33.10;;;;;;5013240;28;20118;-57
2021/06/28 12:25:34;;;;;;;4.07;2.63;;;57.90;33.00;;;;;;5010137;28;20389;-56
2021/06/28 12:28:00;;;;;;;3.00;2.80;;;58.30;32.90;;;;;;5053454;28;20041;-56
2021/06/28 12:30:25;;;;;;;2.78;2.38;;;58.00;33.10;;;;;;5070061;28;20421;-57
2021/06/28 12:32:56;;;;;;;3.53;2.50;;;58.60;32.80;;;;;;5062965;28;20021;-56
2021/06/28 12:35:25;;;;;;;4.82;2.63;;;58.20;32.20;;;;;;5064213;28;20072;-56
2021/06/28 12:37:58;;;;;;;3.33;2.58;;;60.00;32.30;;;;;;5058769;28;20086;-57
2021/06/28 12:40:38;;;;;;;4.72;2.50;;;60.10;32.20;;;;;;5061696;28;20602;-58
2021/06/28 12:43:07;;;;;;;;;;;60.20;31.80;;;;;;5070029;28;20016;-56
2021/06/28 12:45:37;;;;;;;2.72;2.25;;;58.00;32.40;;;;;;5070058;28;19916;-57
2021/06/28 12:48:06;;;;;;;3.10;2.80;;;58.40;31.90;;;;;;5083719;28;20105;-56
2021/06/28 12:50:37;;;;;;;3.13;2.88;;;59.90;32.40;;;;;;5052137;28;20068;-56
2021/06/28 12:53:16;;;;;;;3.83;2.28;;;59.90;33.00;;;;;;5071492;28;20017;-57
2021/06/28 12:55:44;;;;;;;4.50;2.53;;;56.50;32.00;;;;;;5069586;28;20036;-57
2021/06/28 12:58:17;;;;;;;3.47;2.75;;;57.10;32.80;;;;;;5068926;28;20286;-58
2021/06/28 13:00:53;;;;;;;2.80;2.50;;;57.60;32.10;;;;;;5062971;28;20059;-55
2021/06/28 13:03:20;;;;;;;6.07;2.67;;;57.90;32.10;;;;;;5061390;28;20040;-56
2021/06/28 13:05:53;;;;;;;7.25;2.58;;;58.30;32.20;;;;;;5056843;28;20047;-57
2021/06/28 13:08:36;;;;;;;6.55;2.53;;;57.80;32.30;;;;;;5061210;28;20024;-57
2021/06/28 13:11:14;;;;;;;3.90;2.60;;;56.30;32.00;;;;;;5064658;28;20067;-58
2021/06/28 13:16:33;;;;;;;;;;;55.90;33.00;;;;;;5072390;28;20446;-58
2021/06/28 13:19:15;;;;;;;3.20;2.88;;;56.10;33.50;;;;;;5066068;28;19908;-56
2021/06/28 13:21:49;;;;;;;6.05;2.70;;;56.80;33.50;;;;;;5063002;28;20385;-58
2021/06/28 13:24:22;;;;;;;3.17;2.67;;;56.50;32.80;;;;;;5070002;28;20030;-57